sensor_id;sensor_type;location;lat;lon;timestamp;temperature;humidity
65972;SHT31;52726;48.852;9.152;2022-11-18T00:00:47;7.97;92.59
65972;SHT31;52726;48.852;9.152;2022-11-18T00:03:13;8.00;92.30
65972;SHT31;52726;48.852;9.152;2022-11-18T00:05:42;7.97;92.00
65972;SHT31;52726;48.852;9.152;2022-11-18T00:08:10;8.00;92.10
65972;SHT31;52726;48.852;9.152;2022-11-18T00:10:37;7.97;92.32
65972;SHT31;52726;48.852;9.152;2022-11-18T00:13:03;8.00;92.48
65972;SHT31;52726;48.852;9.152;2022-11-18T00:15:47;7.97;92.39
65972;SHT31;52726;48.852;9.152;2022-11-18T00:18:12;7.96;92.51
65972;SHT31;52726;48.852;9.152;2022-11-18T00:20:38;7.95;92.55
65972;SHT31;52726;48.852;9.152;2022-11-18T00:23:03;7.97;92.40
65972;SHT31;52726;48.852;9.152;2022-11-18T00:25:29;7.99;93.01
65972;SHT31;52726;48.852;9.152;2022-11-18T00:27:54;7.99;93.30
65972;SHT31;52726;48.852;9.152;2022-11-18T00:30:19;7.99;93.15
65972;SHT31;52726;48.852;9.152;2022-11-18T00:32:45;7.99;93.15
65972;SHT31;52726;48.852;9.152;2022-11-18T00:35:10;7.99;93.17
65972;SHT31;52726;48.852;9.152;2022-11-18T00:37:35;8.00;93.53
65972;SHT31;52726;48.852;9.152;2022-11-18T00:40:01;7.97;93.45
65972;SHT31;52726;48.852;9.152;2022-11-18T00:42:27;7.97;93.51
65972;SHT31;52726;48.852;9.152;2022-11-18T00:45:11;7.97;93.64
65972;SHT31;52726;48.852;9.152;2022-11-18T00:47:36;7.96;93.63
65972;SHT31;52726;48.852;9.152;2022-11-18T00:50:02;7.93;93.37
65972;SHT31;52726;48.852;9.152;2022-11-18T00:52:27;7.95;93.64
65972;SHT31;52726;48.852;9.152;2022-11-18T00:54:52;7.93;93.78
65972;SHT31;52726;48.852;9.152;2022-11-18T00:57:18;7.90;93.70
65972;SHT31;52726;48.852;9.152;2022-11-18T00:59:45;7.96;93.94
65972;SHT31;52726;48.852;9.152;2022-11-18T01:02:11;7.96;94.29
65972;SHT31;52726;48.852;9.152;2022-11-18T01:04:36;7.97;94.58
65972;SHT31;52726;48.852;9.152;2022-11-18T01:07:01;7.95;94.18
65972;SHT31;52726;48.852;9.152;2022-11-18T01:09:27;7.97;94.49
65972;SHT31;52726;48.852;9.152;2022-11-18T01:11:52;7.97;94.52
65972;SHT31;52726;48.852;9.152;2022-11-18T01:14:36;7.97;94.58
65972;SHT31;52726;48.852;9.152;2022-11-18T01:17:02;7.99;94.81
65972;SHT31;52726;48.852;9.152;2022-11-18T01:19:27;7.97;94.90
65972;SHT31;52726;48.852;9.152;2022-11-18T01:21:53;7.99;95.07
65972;SHT31;52726;48.852;9.152;2022-11-18T01:24:21;7.97;94.97
65972;SHT31;52726;48.852;9.152;2022-11-18T01:26:46;7.96;94.92
65972;SHT31;52726;48.852;9.152;2022-11-18T01:29:11;7.95;94.87
65972;SHT31;52726;48.852;9.152;2022-11-18T01:31:37;7.93;95.19
65972;SHT31;52726;48.852;9.152;2022-11-18T01:34:02;7.90;95.26
65972;SHT31;52726;48.852;9.152;2022-11-18T01:36:28;7.90;95.14
65972;SHT31;52726;48.852;9.152;2022-11-18T01:38:54;7.92;95.21
65972;SHT31;52726;48.852;9.152;2022-11-18T01:41:23;7.89;94.85
65972;SHT31;52726;48.852;9.152;2022-11-18T01:43:59;7.90;95.16
65972;SHT31;52726;48.852;9.152;2022-11-18T01:46:27;7.93;94.99
65972;SHT31;52726;48.852;9.152;2022-11-18T01:49:08;7.92;95.04
65972;SHT31;52726;48.852;9.152;2022-11-18T01:51:51;7.90;94.93
65972;SHT31;52726;48.852;9.152;2022-11-18T01:54:25;7.89;94.82
65972;SHT31;52726;48.852;9.152;2022-11-18T01:56:55;7.90;94.72
65972;SHT31;52726;48.852;9.152;2022-11-18T01:59:25;7.92;94.87
65972;SHT31;52726;48.852;9.152;2022-11-18T02:01:54;7.90;94.99
65972;SHT31;52726;48.852;9.152;2022-11-18T02:04:20;7.92;94.99
65972;SHT31;52726;48.852;9.152;2022-11-18T02:06:46;7.89;94.92
65972;SHT31;52726;48.852;9.152;2022-11-18T02:09:13;7.90;94.81
65972;SHT31;52726;48.852;9.152;2022-11-18T02:11:39;7.87;94.60
65972;SHT31;52726;48.852;9.152;2022-11-18T02:14:24;7.87;94.82
65972;SHT31;52726;48.852;9.152;2022-11-18T02:17:03;7.86;94.22
65972;SHT31;52726;48.852;9.152;2022-11-18T02:25:40;7.86;94.56
65972;SHT31;52726;48.852;9.152;2022-11-18T02:33:50;7.83;94.45
65972;SHT31;52726;48.852;9.152;2022-11-18T02:36:24;7.83;94.94
65972;SHT31;52726;48.852;9.152;2022-11-18T02:38:59;7.82;95.26
65972;SHT31;52726;48.852;9.152;2022-11-18T02:41:29;7.79;95.05
65972;SHT31;52726;48.852;9.152;2022-11-18T02:44:04;7.76;95.23
65972;SHT31;52726;48.852;9.152;2022-11-18T02:46:32;7.76;95.37
65972;SHT31;52726;48.852;9.152;2022-11-18T02:49:01;7.79;95.33
65972;SHT31;52726;48.852;9.152;2022-11-18T02:51:29;7.74;95.46
65972;SHT31;52726;48.852;9.152;2022-11-18T02:53:59;7.74;95.70
65972;SHT31;52726;48.852;9.152;2022-11-18T02:56:27;7.74;95.80
65972;SHT31;52726;48.852;9.152;2022-11-18T02:58:52;7.71;95.96
65972;SHT31;52726;48.852;9.152;2022-11-18T03:01:28;7.68;95.92
65972;SHT31;52726;48.852;9.152;2022-11-18T03:03:53;7.69;96.06
65972;SHT31;52726;48.852;9.152;2022-11-18T03:09:14;7.68;96.25
65972;SHT31;52726;48.852;9.152;2022-11-18T03:15:00;7.68;96.74
65972;SHT31;52726;48.852;9.152;2022-11-18T03:23:32;7.64;97.03
65972;SHT31;52726;48.852;9.152;2022-11-18T03:26:08;7.64;96.95
65972;SHT31;52726;48.852;9.152;2022-11-18T03:31:33;7.64;97.08
65972;SHT31;52726;48.852;9.152;2022-11-18T03:34:07;7.64;97.26
65972;SHT31;52726;48.852;9.152;2022-11-18T03:36:39;7.61;97.43
65972;SHT31;52726;48.852;9.152;2022-11-18T03:39:06;7.62;97.31
65972;SHT31;52726;48.852;9.152;2022-11-18T03:41:48;7.62;97.39
65972;SHT31;52726;48.852;9.152;2022-11-18T03:44:20;7.58;97.32
65972;SHT31;52726;48.852;9.152;2022-11-18T03:46:50;7.59;97.46
65972;SHT31;52726;48.852;9.152;2022-11-18T03:49:25;7.58;97.36
65972;SHT31;52726;48.852;9.152;2022-11-18T03:51:55;7.58;97.32
65972;SHT31;52726;48.852;9.152;2022-11-18T03:54:24;7.50;96.81
65972;SHT31;52726;48.852;9.152;2022-11-18T03:56:57;7.44;96.59
65972;SHT31;52726;48.852;9.152;2022-11-18T03:59:43;7.41;96.47
65972;SHT31;52726;48.852;9.152;2022-11-18T04:02:18;7.43;96.64
65972;SHT31;52726;48.852;9.152;2022-11-18T04:04:45;7.40;96.61
65972;SHT31;52726;48.852;9.152;2022-11-18T04:10:11;7.40;96.59
65972;SHT31;52726;48.852;9.152;2022-11-18T04:12:40;7.43;96.72
65972;SHT31;52726;48.852;9.152;2022-11-18T04:15:06;7.44;96.93
65972;SHT31;52726;48.852;9.152;2022-11-18T04:17:32;7.46;96.99
65972;SHT31;52726;48.852;9.152;2022-11-18T04:19:57;7.46;96.94
65972;SHT31;52726;48.852;9.152;2022-11-18T04:22:23;7.46;96.84
65972;SHT31;52726;48.852;9.152;2022-11-18T04:24:48;7.43;96.85
65972;SHT31;52726;48.852;9.152;2022-11-18T04:27:13;7.41;97.04
65972;SHT31;52726;48.852;9.152;2022-11-18T04:29:39;7.40;97.09
65972;SHT31;52726;48.852;9.152;2022-11-18T04:32:05;7.35;96.60
65972;SHT31;52726;48.852;9.152;2022-11-18T04:34:30;7.32;96.23
65972;SHT31;52726;48.852;9.152;2022-11-18T04:36:57;7.28;95.96
65972;SHT31;52726;48.852;9.152;2022-11-18T04:39:22;7.34;96.37
65972;SHT31;52726;48.852;9.152;2022-11-18T04:41:48;7.24;96.15
65972;SHT31;52726;48.852;9.152;2022-11-18T04:44:33;7.17;95.46
65972;SHT31;52726;48.852;9.152;2022-11-18T04:47:00;7.13;95.29
65972;SHT31;52726;48.852;9.152;2022-11-18T04:49:26;7.10;95.25
65972;SHT31;52726;48.852;9.152;2022-11-18T04:51:52;7.09;94.76
65972;SHT31;52726;48.852;9.152;2022-11-18T04:54:18;7.09;95.08
65972;SHT31;52726;48.852;9.152;2022-11-18T04:56:47;7.09;95.30
65972;SHT31;52726;48.852;9.152;2022-11-18T04:59:13;7.11;95.61
65972;SHT31;52726;48.852;9.152;2022-11-18T05:01:38;7.10;95.98
65972;SHT31;52726;48.852;9.152;2022-11-18T05:04:04;7.10;96.20
65972;SHT31;52726;48.852;9.152;2022-11-18T05:06:31;7.10;96.23
65972;SHT31;52726;48.852;9.152;2022-11-18T05:08:58;7.09;96.18
65972;SHT31;52726;48.852;9.152;2022-11-18T05:11:25;7.04;95.86
65972;SHT31;52726;48.852;9.152;2022-11-18T05:14:09;6.95;94.76
65972;SHT31;52726;48.852;9.152;2022-11-18T05:16:34;6.96;95.02
65972;SHT31;52726;48.852;9.152;2022-11-18T05:19:04;6.93;95.05
65972;SHT31;52726;48.852;9.152;2022-11-18T05:21:30;6.92;94.77
65972;SHT31;52726;48.852;9.152;2022-11-18T05:23:57;6.92;95.04
65972;SHT31;52726;48.852;9.152;2022-11-18T05:26:23;6.92;95.33
65972;SHT31;52726;48.852;9.152;2022-11-18T05:28:48;6.95;95.36
65972;SHT31;52726;48.852;9.152;2022-11-18T05:31:14;6.92;95.49
65972;SHT31;52726;48.852;9.152;2022-11-18T05:33:41;6.90;95.72
65972;SHT31;52726;48.852;9.152;2022-11-18T05:36:09;6.90;95.73
65972;SHT31;52726;48.852;9.152;2022-11-18T05:38:35;6.90;95.80
65972;SHT31;52726;48.852;9.152;2022-11-18T05:41:01;6.93;95.74
65972;SHT31;52726;48.852;9.152;2022-11-18T05:43:27;6.88;95.37
65972;SHT31;52726;48.852;9.152;2022-11-18T05:45:53;6.89;95.77
65972;SHT31;52726;48.852;9.152;2022-11-18T05:48:19;6.89;95.95
65972;SHT31;52726;48.852;9.152;2022-11-18T05:50:46;6.89;95.78
65972;SHT31;52726;48.852;9.152;2022-11-18T05:53:13;6.89;95.86
65972;SHT31;52726;48.852;9.152;2022-11-18T05:55:43;6.92;95.81
65972;SHT31;52726;48.852;9.152;2022-11-18T05:58:10;6.92;96.04
65972;SHT31;52726;48.852;9.152;2022-11-18T06:00:36;6.90;95.68
65972;SHT31;52726;48.852;9.152;2022-11-18T06:03:03;6.89;95.47
65972;SHT31;52726;48.852;9.152;2022-11-18T06:05:32;6.89;95.68
65972;SHT31;52726;48.852;9.152;2022-11-18T06:07:57;6.88;95.70
65972;SHT31;52726;48.852;9.152;2022-11-18T06:10:29;6.85;95.36
65972;SHT31;52726;48.852;9.152;2022-11-18T06:13:00;6.88;95.39
65972;SHT31;52726;48.852;9.152;2022-11-18T06:15:30;6.86;95.27
65972;SHT31;52726;48.852;9.152;2022-11-18T06:20:22;6.89;95.73
65972;SHT31;52726;48.852;9.152;2022-11-18T06:22:50;6.90;95.13
65972;SHT31;52726;48.852;9.152;2022-11-18T06:25:16;6.93;95.03
65972;SHT31;52726;48.852;9.152;2022-11-18T06:27:42;6.92;95.19
65972;SHT31;52726;48.852;9.152;2022-11-18T06:30:08;6.93;95.30
65972;SHT31;52726;48.852;9.152;2022-11-18T06:32:34;6.95;95.50
65972;SHT31;52726;48.852;9.152;2022-11-18T06:34:59;6.92;95.60
65972;SHT31;52726;48.852;9.152;2022-11-18T06:37:24;6.95;95.48
65972;SHT31;52726;48.852;9.152;2022-11-18T06:39:50;6.95;95.55
65972;SHT31;52726;48.852;9.152;2022-11-18T06:42:15;6.95;95.52
65972;SHT31;52726;48.852;9.152;2022-11-18T06:45:02;6.95;95.68
65972;SHT31;52726;48.852;9.152;2022-11-18T06:47:27;6.95;95.54
65972;SHT31;52726;48.852;9.152;2022-11-18T06:49:53;6.95;95.64
65972;SHT31;52726;48.852;9.152;2022-11-18T06:52:18;6.95;95.69
65972;SHT31;52726;48.852;9.152;2022-11-18T06:54:44;6.95;95.92
65972;SHT31;52726;48.852;9.152;2022-11-18T06:57:09;6.97;95.66
65972;SHT31;52726;48.852;9.152;2022-11-18T06:59:34;6.93;95.45
65972;SHT31;52726;48.852;9.152;2022-11-18T07:02:00;6.95;95.80
65972;SHT31;52726;48.852;9.152;2022-11-18T07:04:25;6.93;95.98
65972;SHT31;52726;48.852;9.152;2022-11-18T07:06:50;6.88;95.83
65972;SHT31;52726;48.852;9.152;2022-11-18T07:09:16;6.89;95.90
65972;SHT31;52726;48.852;9.152;2022-11-18T07:11:41;6.88;95.75
65972;SHT31;52726;48.852;9.152;2022-11-18T07:14:11;6.86;95.88
65972;SHT31;52726;48.852;9.152;2022-11-18T07:16:37;6.86;96.00
65972;SHT31;52726;48.852;9.152;2022-11-18T07:19:11;6.88;96.12
65972;SHT31;52726;48.852;9.152;2022-11-18T07:21:37;6.89;95.88
65972;SHT31;52726;48.852;9.152;2022-11-18T07:24:05;6.90;95.98
65972;SHT31;52726;48.852;9.152;2022-11-18T07:26:31;6.90;95.78
65972;SHT31;52726;48.852;9.152;2022-11-18T07:28:56;6.93;96.00
65972;SHT31;52726;48.852;9.152;2022-11-18T07:31:22;6.95;95.96
65972;SHT31;52726;48.852;9.152;2022-11-18T07:33:48;6.95;96.04
65972;SHT31;52726;48.852;9.152;2022-11-18T07:36:18;6.95;96.28
65972;SHT31;52726;48.852;9.152;2022-11-18T07:38:46;6.95;96.35
65972;SHT31;52726;48.852;9.152;2022-11-18T07:55:49;7.09;96.46
65972;SHT31;52726;48.852;9.152;2022-11-18T07:59:21;7.10;96.14
65972;SHT31;52726;48.852;9.152;2022-11-18T08:05:19;7.11;96.17
65972;SHT31;52726;48.852;9.152;2022-11-18T08:07:44;7.14;95.85
65972;SHT31;52726;48.852;9.152;2022-11-18T08:10:09;7.16;95.70
65972;SHT31;52726;48.852;9.152;2022-11-18T08:12:35;7.16;95.83
65972;SHT31;52726;48.852;9.152;2022-11-18T08:15:00;7.23;96.27
65972;SHT31;52726;48.852;9.152;2022-11-18T08:17:28;7.24;95.70
65972;SHT31;52726;48.852;9.152;2022-11-18T08:19:53;7.28;96.06
65972;SHT31;52726;48.852;9.152;2022-11-18T08:22:19;7.28;95.48
65972;SHT31;52726;48.852;9.152;2022-11-18T08:24:45;7.31;96.02
65972;SHT31;52726;48.852;9.152;2022-11-18T08:27:12;7.32;95.97
65972;SHT31;52726;48.852;9.152;2022-11-18T08:29:37;7.31;95.84
65972;SHT31;52726;48.852;9.152;2022-11-18T08:32:03;7.34;95.44
65972;SHT31;52726;48.852;9.152;2022-11-18T08:34:29;7.40;95.58
65972;SHT31;52726;48.852;9.152;2022-11-18T08:36:54;7.38;95.93
65972;SHT31;52726;48.852;9.152;2022-11-18T08:39:20;7.43;95.84
65972;SHT31;52726;48.852;9.152;2022-11-18T08:41:45;7.43;95.97
65972;SHT31;52726;48.852;9.152;2022-11-18T08:44:14;7.43;95.42
65972;SHT31;52726;48.852;9.152;2022-11-18T08:46:40;7.48;95.58
65972;SHT31;52726;48.852;9.152;2022-11-18T08:49:06;7.47;95.06
65972;SHT31;52726;48.852;9.152;2022-11-18T08:51:31;7.54;95.68
65972;SHT31;52726;48.852;9.152;2022-11-18T08:53:57;7.62;95.35
65972;SHT31;52726;48.852;9.152;2022-11-18T08:56:23;7.62;95.22
65972;SHT31;52726;48.852;9.152;2022-11-18T08:58:49;7.72;95.10
65972;SHT31;52726;48.852;9.152;2022-11-18T09:01:15;7.72;94.82
65972;SHT31;52726;48.852;9.152;2022-11-18T09:03:40;7.74;94.58
65972;SHT31;52726;48.852;9.152;2022-11-18T09:06:11;7.75;95.46
65972;SHT31;52726;48.852;9.152;2022-11-18T09:08:37;7.71;95.08
65972;SHT31;52726;48.852;9.152;2022-11-18T09:11:07;7.76;95.45
65972;SHT31;52726;48.852;9.152;2022-11-18T09:13:32;7.75;95.55
65972;SHT31;52726;48.852;9.152;2022-11-18T09:15:58;7.75;95.36
65972;SHT31;52726;48.852;9.152;2022-11-18T09:18:24;7.78;95.62
65972;SHT31;52726;48.852;9.152;2022-11-18T09:20:54;7.78;95.79
65972;SHT31;52726;48.852;9.152;2022-11-18T09:23:19;7.81;95.76
65972;SHT31;52726;48.852;9.152;2022-11-18T09:25:45;7.75;95.49
65972;SHT31;52726;48.852;9.152;2022-11-18T09:28:10;7.81;95.97
65972;SHT31;52726;48.852;9.152;2022-11-18T09:30:38;7.79;95.85
65972;SHT31;52726;48.852;9.152;2022-11-18T09:33:04;7.82;96.10
65972;SHT31;52726;48.852;9.152;2022-11-18T09:35:34;7.78;95.62
65972;SHT31;52726;48.852;9.152;2022-11-18T09:38:02;7.76;96.09
65972;SHT31;52726;48.852;9.152;2022-11-18T09:43:19;7.72;96.29
65972;SHT31;52726;48.852;9.152;2022-11-18T09:45:49;7.74;96.61
65972;SHT31;52726;48.852;9.152;2022-11-18T09:48:31;7.79;96.65
65972;SHT31;52726;48.852;9.152;2022-11-18T09:51:18;7.79;96.81
65972;SHT31;52726;48.852;9.152;2022-11-18T09:53:49;7.87;97.01
65972;SHT31;52726;48.852;9.152;2022-11-18T09:56:27;7.89;97.00
65972;SHT31;52726;48.852;9.152;2022-11-18T09:58:56;7.89;96.98
65972;SHT31;52726;48.852;9.152;2022-11-18T10:01:21;7.92;97.01
65972;SHT31;52726;48.852;9.152;2022-11-18T10:03:48;7.90;96.98
65972;SHT31;52726;48.852;9.152;2022-11-18T10:06:23;7.92;96.91
65972;SHT31;52726;48.852;9.152;2022-11-18T10:09:05;7.99;97.22
65972;SHT31;52726;48.852;9.152;2022-11-18T10:11:39;8.06;97.20
65972;SHT31;52726;48.852;9.152;2022-11-18T10:20:29;8.22;96.89
65972;SHT31;52726;48.852;9.152;2022-11-18T10:25:47;8.32;96.24
65972;SHT31;52726;48.852;9.152;2022-11-18T10:28:27;8.32;95.42
65972;SHT31;52726;48.852;9.152;2022-11-18T10:31:03;8.34;95.99
65972;SHT31;52726;48.852;9.152;2022-11-18T10:33:28;8.36;95.63
65972;SHT31;52726;48.852;9.152;2022-11-18T10:36:18;8.44;95.92
65972;SHT31;52726;48.852;9.152;2022-11-18T10:38:44;8.43;95.45
65972;SHT31;52726;48.852;9.152;2022-11-18T10:47:30;8.45;94.79
65972;SHT31;52726;48.852;9.152;2022-11-18T10:50:01;8.52;94.88
65972;SHT31;52726;48.852;9.152;2022-11-18T10:52:52;8.51;94.35
65972;SHT31;52726;48.852;9.152;2022-11-18T10:55:23;8.55;93.89
65972;SHT31;52726;48.852;9.152;2022-11-18T10:57:52;8.58;94.20
65972;SHT31;52726;48.852;9.152;2022-11-18T11:02:45;8.45;94.15
65972;SHT31;52726;48.852;9.152;2022-11-18T11:05:32;8.47;95.05
65972;SHT31;52726;48.852;9.152;2022-11-18T11:08:19;8.47;95.13
65972;SHT31;52726;48.852;9.152;2022-11-18T11:11:18;8.47;94.92
65972;SHT31;52726;48.852;9.152;2022-11-18T11:13:51;8.47;95.29
65972;SHT31;52726;48.852;9.152;2022-11-18T11:16:18;8.43;95.26
65972;SHT31;52726;48.852;9.152;2022-11-18T11:18:49;8.37;94.40
65972;SHT31;52726;48.852;9.152;2022-11-18T11:21:20;8.32;93.81
65972;SHT31;52726;48.852;9.152;2022-11-18T11:23:49;8.26;94.87
65972;SHT31;52726;48.852;9.152;2022-11-18T11:26:38;8.29;93.89
65972;SHT31;52726;48.852;9.152;2022-11-18T11:31:36;8.38;93.56
65972;SHT31;52726;48.852;9.152;2022-11-18T11:37:03;8.54;94.01
65972;SHT31;52726;48.852;9.152;2022-11-18T11:45:23;8.79;93.50
65972;SHT31;52726;48.852;9.152;2022-11-18T11:47:57;8.79;94.13
65972;SHT31;52726;48.852;9.152;2022-11-18T11:50:32;8.79;92.73
65972;SHT31;52726;48.852;9.152;2022-11-18T11:56:24;8.89;92.73
65972;SHT31;52726;48.852;9.152;2022-11-18T11:59:05;8.85;91.64
65972;SHT31;52726;48.852;9.152;2022-11-18T12:04:32;8.89;92.55
65972;SHT31;52726;48.852;9.152;2022-11-18T12:07:00;8.91;92.05
65972;SHT31;52726;48.852;9.152;2022-11-18T12:12:24;8.93;90.50
65972;SHT31;52726;48.852;9.152;2022-11-18T12:15:15;8.92;89.07
65972;SHT31;52726;48.852;9.152;2022-11-18T12:20:48;8.98;88.32
65972;SHT31;52726;48.852;9.152;2022-11-18T12:23:28;9.03;88.53
65972;SHT31;52726;48.852;9.152;2022-11-18T12:26:09;9.05;88.90
65972;SHT31;52726;48.852;9.152;2022-11-18T12:28:40;9.02;88.58
65972;SHT31;52726;48.852;9.152;2022-11-18T12:38:54;8.88;89.64
65972;SHT31;52726;48.852;9.152;2022-11-18T12:44:23;8.78;88.54
65972;SHT31;52726;48.852;9.152;2022-11-18T12:46:53;8.78;89.31
65972;SHT31;52726;48.852;9.152;2022-11-18T12:51:48;8.73;88.99
65972;SHT31;52726;48.852;9.152;2022-11-18T12:55:10;8.67;88.11
65972;SHT31;52726;48.852;9.152;2022-11-18T12:57:27;8.69;89.23
65972;SHT31;52726;48.852;9.152;2022-11-18T12:59:53;8.65;89.69
65972;SHT31;52726;48.852;9.152;2022-11-18T13:02:27;8.62;90.20
65972;SHT31;52726;48.852;9.152;2022-11-18T13:05:02;8.62;90.49
65972;SHT31;52726;48.852;9.152;2022-11-18T13:07:31;8.65;89.96
65972;SHT31;52726;48.852;9.152;2022-11-18T13:10:22;8.64;90.48
65972;SHT31;52726;48.852;9.152;2022-11-18T13:12:48;8.68;90.54
65972;SHT31;52726;48.852;9.152;2022-11-18T13:15:14;8.69;90.51
65972;SHT31;52726;48.852;9.152;2022-11-18T13:18:15;8.78;89.31
65972;SHT31;52726;48.852;9.152;2022-11-18T13:20:42;8.95;88.20
65972;SHT31;52726;48.852;9.152;2022-11-18T13:25:52;9.22;87.72
65972;SHT31;52726;48.852;9.152;2022-11-18T13:28:31;9.36;87.72
65972;SHT31;52726;48.852;9.152;2022-11-18T13:31:28;9.51;87.41
65972;SHT31;52726;48.852;9.152;2022-11-18T13:34:00;9.43;86.85
65972;SHT31;52726;48.852;9.152;2022-11-18T13:36:27;9.47;86.04
65972;SHT31;52726;48.852;9.152;2022-11-18T13:38:57;9.46;86.50
65972;SHT31;52726;48.852;9.152;2022-11-18T13:41:23;9.43;85.72
65972;SHT31;52726;48.852;9.152;2022-11-18T13:43:49;9.47;86.09
65972;SHT31;52726;48.852;9.152;2022-11-18T13:46:18;9.31;85.44
65972;SHT31;52726;48.852;9.152;2022-11-18T13:48:53;9.20;86.65
65972;SHT31;52726;48.852;9.152;2022-11-18T13:51:20;9.10;86.96
65972;SHT31;52726;48.852;9.152;2022-11-18T13:53:46;8.95;86.57
65972;SHT31;52726;48.852;9.152;2022-11-18T13:56:22;8.89;87.26
65972;SHT31;52726;48.852;9.152;2022-11-18T14:01:25;8.93;87.63
65972;SHT31;52726;48.852;9.152;2022-11-18T14:03:52;8.95;87.72
65972;SHT31;52726;48.852;9.152;2022-11-18T14:06:46;8.88;86.60
65972;SHT31;52726;48.852;9.152;2022-11-18T14:09:25;8.81;86.93
65972;SHT31;52726;48.852;9.152;2022-11-18T14:12:22;8.72;87.07
65972;SHT31;52726;48.852;9.152;2022-11-18T14:14:47;8.68;87.40
65972;SHT31;52726;48.852;9.152;2022-11-18T14:19:49;8.51;87.59
65972;SHT31;52726;48.852;9.152;2022-11-18T14:22:23;8.55;87.21
65972;SHT31;52726;48.852;9.152;2022-11-18T14:27:38;8.54;87.98
65972;SHT31;52726;48.852;9.152;2022-11-18T14:35:34;8.45;88.62
65972;SHT31;52726;48.852;9.152;2022-11-18T14:37:59;8.47;88.58
65972;SHT31;52726;48.852;9.152;2022-11-18T14:40:27;8.52;88.68
65972;SHT31;52726;48.852;9.152;2022-11-18T14:42:55;8.52;88.09
65972;SHT31;52726;48.852;9.152;2022-11-18T14:45:20;8.61;87.59
65972;SHT31;52726;48.852;9.152;2022-11-18T14:47:48;8.62;87.18
65972;SHT31;52726;48.852;9.152;2022-11-18T14:50:14;8.67;87.26
65972;SHT31;52726;48.852;9.152;2022-11-18T14:52:39;8.68;86.74
65972;SHT31;52726;48.852;9.152;2022-11-18T14:55:05;8.69;86.84
65972;SHT31;52726;48.852;9.152;2022-11-18T14:57:31;8.67;86.96
65972;SHT31;52726;48.852;9.152;2022-11-18T14:59:57;8.61;87.01
65972;SHT31;52726;48.852;9.152;2022-11-18T15:02:22;8.61;86.94
65972;SHT31;52726;48.852;9.152;2022-11-18T15:04:47;8.57;87.55
65972;SHT31;52726;48.852;9.152;2022-11-18T15:07:14;8.55;87.25
65972;SHT31;52726;48.852;9.152;2022-11-18T15:09:40;8.55;87.25
65972;SHT31;52726;48.852;9.152;2022-11-18T15:12:06;8.52;87.64
65972;SHT31;52726;48.852;9.152;2022-11-18T15:14:32;8.52;87.53
65972;SHT31;52726;48.852;9.152;2022-11-18T15:16:59;8.52;87.48
65972;SHT31;52726;48.852;9.152;2022-11-18T15:19:24;8.50;88.04
65972;SHT31;52726;48.852;9.152;2022-11-18T15:21:49;8.48;87.22
65972;SHT31;52726;48.852;9.152;2022-11-18T15:24:15;8.50;87.52
65972;SHT31;52726;48.852;9.152;2022-11-18T15:26:43;8.52;86.54
65972;SHT31;52726;48.852;9.152;2022-11-18T15:29:21;8.52;87.30
65972;SHT31;52726;48.852;9.152;2022-11-18T15:31:47;8.48;86.29
65972;SHT31;52726;48.852;9.152;2022-11-18T15:34:17;8.47;84.64
65972;SHT31;52726;48.852;9.152;2022-11-18T15:36:43;8.41;84.21
65972;SHT31;52726;48.852;9.152;2022-11-18T15:39:11;8.37;83.92
65972;SHT31;52726;48.852;9.152;2022-11-18T15:41:38;8.32;84.63
65972;SHT31;52726;48.852;9.152;2022-11-18T15:44:04;8.23;86.31
65972;SHT31;52726;48.852;9.152;2022-11-18T15:46:30;8.22;86.70
65972;SHT31;52726;48.852;9.152;2022-11-18T15:48:57;8.22;87.37
65972;SHT31;52726;48.852;9.152;2022-11-18T15:51:25;8.16;87.86
65972;SHT31;52726;48.852;9.152;2022-11-18T15:53:50;8.10;88.57
65972;SHT31;52726;48.852;9.152;2022-11-18T15:59:07;8.06;89.50
65972;SHT31;52726;48.852;9.152;2022-11-18T16:01:38;8.03;89.63
65972;SHT31;52726;48.852;9.152;2022-11-18T16:04:06;7.97;90.22
65972;SHT31;52726;48.852;9.152;2022-11-18T16:06:32;7.95;90.29
65972;SHT31;52726;48.852;9.152;2022-11-18T16:08:58;7.90;90.15
65972;SHT31;52726;48.852;9.152;2022-11-18T16:11:23;7.92;90.00
65972;SHT31;52726;48.852;9.152;2022-11-18T16:14:10;7.87;90.17
65972;SHT31;52726;48.852;9.152;2022-11-18T16:16:37;7.89;90.12
65972;SHT31;52726;48.852;9.152;2022-11-18T16:19:05;7.87;89.40
65972;SHT31;52726;48.852;9.152;2022-11-18T16:21:33;7.89;89.79
65972;SHT31;52726;48.852;9.152;2022-11-18T16:24:00;7.85;90.13
65972;SHT31;52726;48.852;9.152;2022-11-18T16:26:27;7.86;89.53
65972;SHT31;52726;48.852;9.152;2022-11-18T16:28:55;7.86;89.58
65972;SHT31;52726;48.852;9.152;2022-11-18T16:31:20;7.85;89.22
65972;SHT31;52726;48.852;9.152;2022-11-18T16:34:11;7.87;89.67
65972;SHT31;52726;48.852;9.152;2022-11-18T16:36:39;7.82;89.48
65972;SHT31;52726;48.852;9.152;2022-11-18T16:39:13;7.83;88.99
65972;SHT31;52726;48.852;9.152;2022-11-18T16:41:40;7.79;89.26
65972;SHT31;52726;48.852;9.152;2022-11-18T16:44:08;7.75;89.33
65972;SHT31;52726;48.852;9.152;2022-11-18T16:46:35;7.69;89.29
65972;SHT31;52726;48.852;9.152;2022-11-18T16:49:02;7.66;89.76
65972;SHT31;52726;48.852;9.152;2022-11-18T16:51:30;7.62;90.00
65972;SHT31;52726;48.852;9.152;2022-11-18T16:54:01;7.61;90.18
65972;SHT31;52726;48.852;9.152;2022-11-18T16:56:28;7.58;90.18
65972;SHT31;52726;48.852;9.152;2022-11-18T16:59:06;7.55;90.05
65972;SHT31;52726;48.852;9.152;2022-11-18T17:01:34;7.52;89.51
65972;SHT31;52726;48.852;9.152;2022-11-18T17:04:00;7.54;89.95
65972;SHT31;52726;48.852;9.152;2022-11-18T17:06:25;7.51;90.00
65972;SHT31;52726;48.852;9.152;2022-11-18T17:08:51;7.52;89.91
65972;SHT31;52726;48.852;9.152;2022-11-18T17:11:17;7.54;90.04
65972;SHT31;52726;48.852;9.152;2022-11-18T17:13:43;7.50;90.26
65972;SHT31;52726;48.852;9.152;2022-11-18T17:16:14;7.52;90.73
65972;SHT31;52726;48.852;9.152;2022-11-18T17:18:43;7.54;90.41
65972;SHT31;52726;48.852;9.152;2022-11-18T17:21:13;7.51;90.43
65972;SHT31;52726;48.852;9.152;2022-11-18T17:23:42;7.54;90.46
65972;SHT31;52726;48.852;9.152;2022-11-18T17:26:07;7.47;90.24
65972;SHT31;52726;48.852;9.152;2022-11-18T17:28:35;7.50;90.50
65972;SHT31;52726;48.852;9.152;2022-11-18T17:31:10;7.47;90.24
65972;SHT31;52726;48.852;9.152;2022-11-18T17:33:36;7.46;90.36
65972;SHT31;52726;48.852;9.152;2022-11-18T17:36:06;7.41;90.38
65972;SHT31;52726;48.852;9.152;2022-11-18T17:38:37;7.44;89.74
65972;SHT31;52726;48.852;9.152;2022-11-18T17:41:03;7.43;89.98
65972;SHT31;52726;48.852;9.152;2022-11-18T17:43:28;7.44;90.36
65972;SHT31;52726;48.852;9.152;2022-11-18T17:45:55;7.38;90.37
65972;SHT31;52726;48.852;9.152;2022-11-18T17:48:23;7.37;90.43
65972;SHT31;52726;48.852;9.152;2022-11-18T17:50:49;7.38;90.09
65972;SHT31;52726;48.852;9.152;2022-11-18T17:53:15;7.32;90.13
65972;SHT31;52726;48.852;9.152;2022-11-18T17:55:40;7.32;90.32
65972;SHT31;52726;48.852;9.152;2022-11-18T17:58:06;7.32;90.33
65972;SHT31;52726;48.852;9.152;2022-11-18T18:00:32;7.31;90.21
65972;SHT31;52726;48.852;9.152;2022-11-18T18:02:59;7.30;90.18
65972;SHT31;52726;48.852;9.152;2022-11-18T18:05:24;7.32;89.88